Rechercher aéroport 
image banner adimage banner adimage banner ad
image banner ad

KCVH - Hollister Muni

Situé à Hollister, United States

ICAO - CVH, IATA -

Données fournies par Airmate  

Information générale

Coordonnées: N36°53'36" W121°24'37"
Élévation : 231 feet MSL.
Variation magnétique : 15° East
Voir autres Aéroports à California

Données opérationnelles

Special qualification required
Heure actuelle UTC:
Heure actuelle locale:
Météo
METAR: KCVH 020535Z AUTO 24007KT 10SM CLR 16/12 A3011 RMK A01
Voir NOTAMs / SUP AIP / TFR affectant cet aéroport [VIEW]
Fréquences de communication: [VIEW]

Pistes:

Identifiant RWYQFULongueur (ft)Largeur (ft)SurfaceLDA (ft)
0672°3149100ASPH
13142°6350100ASPH
24252°3149100ASPH
31322°6350100ASPH

Coordonnées de l'aéroport

Adresse: Hollister United States

Autres services d'aviation

Écoles de pilotage

Hollister Soaring Center, Llc

Hollister Soaring Center, Llc

Vue satellite de KCVH